createdAt,value
2018-12-02T00:02:09.472Z,91.70
2018-12-02T00:05:13.462Z,91.60
2018-12-02T00:08:17.568Z,91.60
2018-12-02T00:11:21.573Z,91.60
2018-12-02T00:14:25.597Z,91.60
2018-12-02T00:17:29.608Z,91.50
2018-12-02T00:20:33.618Z,91.50
2018-12-02T00:23:37.633Z,91.50
2018-12-02T00:26:41.628Z,91.50
2018-12-02T00:29:45.651Z,91.40
2018-12-02T00:32:49.732Z,91.30
2018-12-02T00:35:53.747Z,91.20
2018-12-02T00:38:57.750Z,91.20
2018-12-02T00:42:01.780Z,91.20
2018-12-02T00:45:08.858Z,91.20
2018-12-02T00:48:12.899Z,91.20
2018-12-02T00:51:16.925Z,91.20
2018-12-02T00:54:20.993Z,91.20
2018-12-02T00:57:24.987Z,91.10
2018-12-02T01:00:29.009Z,91.00
2018-12-02T01:03:33.019Z,91.10
2018-12-02T01:06:37.052Z,91.10
2018-12-02T01:09:41.629Z,91.00
2018-12-02T01:12:46.303Z,91.20
2018-12-02T01:15:52.464Z,91.30
2018-12-02T01:18:56.476Z,91.30
2018-12-02T01:22:00.815Z,91.20
2018-12-02T01:25:05.476Z,91.20
2018-12-02T01:28:09.482Z,91.10
2018-12-02T01:31:13.552Z,91.10
2018-12-02T01:34:17.574Z,91.10
2018-12-02T01:37:21.597Z,91.10
2018-12-02T01:40:25.628Z,90.90
2018-12-02T01:43:29.628Z,90.90
2018-12-02T01:46:33.659Z,90.80
2018-12-02T01:49:37.687Z,90.70
2018-12-02T01:52:41.981Z,90.60
2018-12-02T01:55:45.995Z,90.70
2018-12-02T01:58:50.024Z,90.70
2018-12-02T02:01:54.034Z,90.60
2018-12-02T02:04:58.034Z,90.60
2018-12-02T02:08:02.059Z,90.50
2018-12-02T02:11:06.091Z,90.50
2018-12-02T02:14:10.103Z,90.40
2018-12-02T02:17:14.112Z,90.40
2018-12-02T02:20:21.988Z,90.30
2018-12-02T02:23:26.002Z,90.10
2018-12-02T02:26:30.014Z,90.10
2018-12-02T02:29:34.030Z,90.10
2018-12-02T02:32:38.055Z,90.00
2018-12-02T02:35:42.072Z,89.90
2018-12-02T02:38:46.086Z,89.70
2018-12-02T02:41:50.099Z,89.50
2018-12-02T02:44:54.103Z,89.30
2018-12-02T02:47:58.114Z,89.10
2018-12-02T02:51:02.130Z,88.80
2018-12-02T02:54:06.332Z,88.60
2018-12-02T02:57:10.330Z,88.30
2018-12-02T03:00:16.332Z,88.00
2018-12-02T03:03:20.346Z,87.90
2018-12-02T03:06:24.347Z,87.60
2018-12-02T03:09:28.360Z,87.60
2018-12-02T03:12:32.356Z,87.40
2018-12-02T03:15:36.370Z,87.10
2018-12-02T03:18:40.366Z,87.00
2018-12-02T03:21:44.364Z,86.90
2018-12-02T03:24:48.372Z,86.90
2018-12-02T03:27:52.386Z,86.50
2018-12-02T03:30:56.405Z,86.50
2018-12-02T03:34:00.409Z,86.30
2018-12-02T03:37:04.416Z,86.00
2018-12-02T03:40:19.356Z,86.00
2018-12-02T03:43:23.364Z,85.80
2018-12-02T03:46:27.372Z,85.80
2018-12-02T03:49:31.386Z,85.60
2018-12-02T03:52:35.386Z,85.40
2018-12-02T03:55:39.382Z,85.10
2018-12-02T03:58:43.394Z,85.00
2018-12-02T04:01:47.398Z,85.00
2018-12-02T04:04:51.411Z,84.80
2018-12-02T04:07:55.405Z,85.20
2018-12-02T04:10:59.419Z,84.40
2018-12-02T04:14:03.557Z,84.20
2018-12-02T04:17:07.555Z,84.00
2018-12-02T04:20:12.615Z,84.00
2018-12-02T04:23:16.615Z,84.00
2018-12-02T04:26:20.635Z,84.00
2018-12-02T04:29:24.667Z,84.00
2018-12-02T04:32:29.577Z,84.00
2018-12-02T04:35:33.580Z,84.20
2018-12-02T04:38:37.571Z,84.40
2018-12-02T04:41:41.575Z,84.60
2018-12-02T04:44:45.576Z,84.80
2018-12-02T04:47:49.824Z,85.10
2018-12-02T04:50:53.844Z,85.30
2018-12-02T04:53:57.874Z,85.30
2018-12-02T04:57:01.871Z,85.50
2018-12-02T05:00:08.373Z,85.60
2018-12-02T05:03:12.411Z,85.80
2018-12-02T05:06:16.424Z,85.80
2018-12-02T05:09:20.443Z,86.10
2018-12-02T05:12:24.463Z,86.20
2018-12-02T05:15:28.508Z,86.50
2018-12-02T05:18:32.515Z,86.60
2018-12-02T05:21:36.515Z,86.70
2018-12-02T05:24:40.719Z,86.80
2018-12-02T05:27:44.905Z,86.80
2018-12-02T05:30:48.887Z,86.80
2018-12-02T05:33:52.886Z,87.20
2018-12-02T05:36:56.896Z,87.40
2018-12-02T05:40:00.903Z,87.60
2018-12-02T05:43:05.314Z,87.80
2018-12-02T05:46:09.310Z,88.00
2018-12-02T05:49:13.338Z,88.20
2018-12-02T05:52:17.347Z,88.30
2018-12-02T05:55:22.767Z,88.40
2018-12-02T05:58:26.763Z,88.50
2018-12-02T06:01:30.759Z,88.60
2018-12-02T06:04:34.774Z,88.70
2018-12-02T06:07:38.790Z,89.00
2018-12-02T06:10:42.798Z,88.90
2018-12-02T06:13:46.807Z,88.70
2018-12-02T06:16:50.803Z,88.50
2018-12-02T06:19:54.815Z,88.50
2018-12-02T06:22:58.881Z,88.50
2018-12-02T06:26:02.877Z,88.40
2018-12-02T06:29:08.202Z,88.30
2018-12-02T06:32:12.450Z,88.10
2018-12-02T06:35:16.460Z,88.00
2018-12-02T06:38:20.820Z,88.00
2018-12-02T06:41:25.212Z,87.90
2018-12-02T06:44:29.696Z,87.60
2018-12-02T06:47:33.739Z,87.40
2018-12-02T06:50:38.143Z,87.50
2018-12-02T06:53:42.664Z,87.50
2018-12-02T06:56:47.399Z,87.60
2018-12-02T07:00:04.284Z,87.80
2018-12-02T07:03:32.567Z,88.00
2018-12-02T07:06:36.640Z,88.20
2018-12-02T07:09:41.624Z,88.40
2018-12-02T07:12:45.631Z,88.80
2018-12-02T07:15:51.819Z,89.00
2018-12-02T07:18:56.472Z,89.20
2018-12-02T07:22:18.684Z,89.30
2018-12-02T07:25:24.930Z,89.50
2018-12-02T07:28:28.948Z,89.70
2018-12-02T07:31:32.983Z,90.00
2018-12-02T07:34:37.011Z,90.10
2018-12-02T07:37:42.824Z,90.40
2018-12-02T07:40:46.850Z,90.20
2018-12-02T07:43:50.856Z,90.20
2018-12-02T07:46:54.911Z,90.20
2018-12-02T07:49:58.926Z,90.40
2018-12-02T07:53:02.936Z,90.50
2018-12-02T07:56:06.935Z,90.60
2018-12-02T07:59:10.939Z,90.60
2018-12-02T08:02:14.942Z,90.60
2018-12-02T08:05:18.960Z,90.70
2018-12-02T08:08:23.013Z,90.80
2018-12-02T08:11:27.031Z,90.90
2018-12-02T08:14:31.040Z,90.90
2018-12-02T08:17:35.057Z,91.00
2018-12-02T08:20:39.468Z,91.10
2018-12-02T08:23:43.491Z,91.20
2018-12-02T08:26:47.822Z,91.30
2018-12-02T08:29:52.355Z,91.40
2018-12-02T08:32:56.720Z,91.40
2018-12-02T08:36:01.051Z,91.50
2018-12-02T08:39:09.185Z,91.60
2018-12-02T08:42:13.359Z,91.60
2018-12-02T08:45:18.405Z,91.70
2018-12-02T08:48:22.811Z,91.70
2018-12-02T08:51:26.901Z,91.60
2018-12-02T08:54:30.979Z,91.70
2018-12-02T08:57:35.096Z,91.70
2018-12-02T09:00:39.102Z,91.80
2018-12-02T09:03:43.091Z,91.80
2018-12-02T09:06:47.300Z,91.90
2018-12-02T09:09:59.378Z,92.00
2018-12-02T09:13:00.687Z,91.90
2018-12-02T09:16:04.675Z,91.90
2018-12-02T09:19:08.700Z,91.80
2018-12-02T09:22:12.727Z,91.80
2018-12-02T09:25:16.932Z,91.80
2018-12-02T09:28:21.624Z,91.60
2018-12-02T09:31:26.148Z,91.50
2018-12-02T09:34:30.174Z,91.40
2018-12-02T09:37:34.281Z,91.30
2018-12-02T09:40:38.275Z,91.20
2018-12-02T09:43:42.341Z,91.20
2018-12-02T09:46:46.342Z,91.10
2018-12-02T09:49:50.355Z,91.10
2018-12-02T09:52:54.464Z,91.10
2018-12-02T09:55:58.542Z,91.20
2018-12-02T09:59:02.551Z,91.20
2018-12-02T10:02:06.627Z,91.30
2018-12-02T10:05:10.659Z,91.40
2018-12-02T10:08:14.735Z,91.40
2018-12-02T10:11:18.815Z,91.50
2018-12-02T10:14:22.836Z,91.60
2018-12-02T10:17:26.850Z,91.70
2018-12-02T10:20:30.843Z,91.70
2018-12-02T10:23:34.999Z,91.90
2018-12-02T10:26:39.013Z,91.90
2018-12-02T10:29:43.014Z,92.00
2018-12-02T10:32:47.073Z,92.00
2018-12-02T10:35:51.407Z,92.10
2018-12-02T10:38:55.463Z,92.10
2018-12-02T10:41:59.456Z,92.10
2018-12-02T10:45:03.775Z,92.20
2018-12-02T10:48:09.739Z,92.30
2018-12-02T10:51:13.961Z,92.30
2018-12-02T10:54:18.123Z,92.30
2018-12-02T10:57:22.113Z,91.80
2018-12-02T11:00:31.587Z,91.80
2018-12-02T11:03:35.589Z,91.80
2018-12-02T11:06:39.612Z,91.80
2018-12-02T11:09:43.633Z,91.60
2018-12-02T11:12:47.627Z,91.50
2018-12-02T11:15:51.677Z,91.40
2018-12-02T11:18:55.681Z,91.30
2018-12-02T11:21:59.690Z,91.20
2018-12-02T11:25:03.707Z,91.20
2018-12-02T11:28:08.691Z,91.10
2018-12-02T11:31:12.712Z,91.10
2018-12-02T11:37:48.833Z,91.10
2018-12-02T11:40:52.838Z,91.10
2018-12-02T11:43:56.835Z,91.10
2018-12-02T11:47:00.840Z,91.10
2018-12-02T11:50:08.347Z,91.00
2018-12-02T11:53:12.350Z,91.00
2018-12-02T11:56:16.375Z,91.10
2018-12-02T11:59:20.370Z,91.60
2018-12-02T12:02:24.404Z,91.40
2018-12-02T12:05:28.494Z,91.60
2018-12-02T12:08:32.521Z,91.70
2018-12-02T12:11:37.329Z,91.90
2018-12-02T12:14:41.323Z,92.10
2018-12-02T12:17:45.700Z,92.20
2018-12-02T12:20:49.710Z,92.40
2018-12-02T12:23:53.715Z,92.50
2018-12-02T12:26:57.735Z,92.60
2018-12-02T12:30:01.744Z,92.80
2018-12-02T12:33:06.978Z,93.20
2018-12-02T12:36:10.998Z,92.90
2018-12-02T12:39:15.103Z,93.10
2018-12-02T12:42:19.115Z,93.20
2018-12-02T12:45:23.195Z,93.30
2018-12-02T12:48:27.200Z,93.40
2018-12-02T12:51:31.234Z,93.50
2018-12-02T12:54:35.243Z,93.60
2018-12-02T12:57:39.248Z,93.80
2018-12-02T13:00:43.270Z,93.80
2018-12-02T13:03:47.275Z,93.90
2018-12-02T13:06:51.276Z,94.00
2018-12-02T13:09:55.281Z,94.10
2018-12-02T13:12:59.308Z,94.10
2018-12-02T13:16:03.294Z,94.20
2018-12-02T13:19:07.304Z,94.40
2018-12-02T13:22:11.306Z,94.30
2018-12-02T13:25:16.040Z,94.30
2018-12-02T13:28:20.049Z,94.40
2018-12-02T13:31:24.045Z,94.50
2018-12-02T13:34:28.051Z,94.40
2018-12-02T13:37:32.047Z,94.50
2018-12-02T13:40:37.042Z,94.50
2018-12-02T13:43:41.046Z,94.50
2018-12-02T13:46:45.055Z,94.50
2018-12-02T13:49:49.328Z,94.50
2018-12-02T13:52:54.535Z,94.60
2018-12-02T13:55:58.544Z,94.60
2018-12-02T13:59:02.542Z,94.60
2018-12-02T14:02:06.543Z,94.60
2018-12-02T14:05:10.602Z,94.70
2018-12-02T14:08:14.645Z,94.80
2018-12-02T14:11:18.643Z,94.80
2018-12-02T14:14:22.822Z,95.20
2018-12-02T14:17:28.396Z,94.90
2018-12-02T14:20:32.407Z,95.00
2018-12-02T14:23:37.826Z,95.10
2018-12-02T14:26:44.117Z,95.10
2018-12-02T14:29:53.131Z,95.20
2018-12-02T14:32:57.303Z,95.20
2018-12-02T14:36:01.330Z,95.30
2018-12-02T14:39:09.940Z,95.40
2018-12-02T14:42:13.955Z,95.50
2018-12-02T14:45:18.023Z,95.70
2018-12-02T14:48:22.045Z,95.80
2018-12-02T14:51:27.097Z,95.80
2018-12-02T14:54:30.112Z,96.00
2018-12-02T14:57:34.102Z,96.10
2018-12-02T15:00:38.455Z,96.30
2018-12-02T15:03:42.446Z,96.40
2018-12-02T15:06:46.459Z,96.80
2018-12-02T15:09:50.475Z,96.50
2018-12-02T15:12:54.512Z,96.60
2018-12-02T15:15:58.518Z,96.60
2018-12-02T15:19:02.527Z,96.70
2018-12-02T15:22:06.560Z,96.90
2018-12-02T15:25:11.926Z,96.70
2018-12-02T15:28:15.934Z,96.70
2018-12-02T15:31:19.944Z,96.70
2018-12-02T15:34:23.943Z,96.80
2018-12-02T15:37:27.974Z,96.80
2018-12-02T15:40:31.976Z,96.90
2018-12-02T15:43:35.971Z,96.90
2018-12-02T15:46:39.972Z,96.80
2018-12-02T15:49:43.977Z,96.90
2018-12-02T15:52:48.059Z,97.00
2018-12-02T15:55:52.066Z,97.00
2018-12-02T15:58:56.070Z,96.90
2018-12-02T16:02:00.078Z,97.00
2018-12-02T16:05:04.139Z,96.90
2018-12-02T16:08:08.462Z,96.90
2018-12-02T16:11:12.509Z,97.00
2018-12-02T16:14:16.505Z,97.00
2018-12-02T16:17:20.504Z,97.00
2018-12-02T16:20:31.288Z,97.00
2018-12-02T16:23:35.286Z,97.20
2018-12-02T16:26:39.310Z,96.90
2018-12-02T16:29:43.304Z,97.00
2018-12-02T16:32:57.139Z,97.10
2018-12-02T16:36:01.161Z,97.10
2018-12-02T16:39:08.380Z,97.20
2018-12-02T16:42:12.906Z,97.20
2018-12-02T16:45:18.117Z,97.20
2018-12-02T16:48:22.155Z,97.30
2018-12-02T16:51:26.179Z,97.40
2018-12-02T16:54:30.220Z,97.40
2018-12-02T16:57:34.368Z,97.50
2018-12-02T17:00:53.778Z,97.50
2018-12-02T17:03:59.755Z,97.50
2018-12-02T17:07:03.948Z,97.50
2018-12-02T17:10:09.827Z,97.50
2018-12-02T17:13:13.987Z,97.50
2018-12-02T17:16:17.986Z,97.50
2018-12-02T17:19:21.998Z,97.60
2018-12-02T17:22:25.987Z,97.60
2018-12-02T17:25:29.999Z,97.50
2018-12-02T17:28:34.007Z,97.50
2018-12-02T17:31:55.641Z,97.50
2018-12-02T17:34:59.639Z,97.50
2018-12-02T17:38:03.641Z,97.50
2018-12-02T17:41:09.539Z,97.50
2018-12-02T17:44:13.590Z,97.60
2018-12-02T17:47:17.590Z,97.60
2018-12-02T17:50:21.603Z,97.70
2018-12-02T17:53:25.612Z,97.70
2018-12-02T17:56:29.612Z,97.80
2018-12-02T17:59:33.686Z,97.60
2018-12-02T18:02:37.909Z,97.60
2018-12-02T18:05:44.416Z,97.50
2018-12-02T18:08:48.501Z,97.60
2018-12-02T18:11:53.703Z,97.60
2018-12-02T18:14:57.723Z,97.50
2018-12-02T18:18:01.711Z,97.50
2018-12-02T18:21:05.771Z,97.60
2018-12-02T18:24:09.760Z,97.50
2018-12-02T18:27:13.774Z,97.60
2018-12-02T18:30:19.007Z,97.70
2018-12-02T18:33:23.048Z,97.60
2018-12-02T18:36:30.419Z,97.40
2018-12-02T18:39:34.380Z,97.50
2018-12-02T18:42:38.450Z,97.50
2018-12-02T18:45:42.456Z,97.40
2018-12-02T18:48:46.615Z,97.40
2018-12-02T18:51:50.669Z,97.40
2018-12-02T18:54:54.669Z,97.40
2018-12-02T18:57:58.705Z,97.40
2018-12-02T19:01:02.760Z,97.40
2018-12-02T19:04:07.202Z,97.30
2018-12-02T19:07:11.270Z,97.30
2018-12-02T19:10:17.308Z,97.20
2018-12-02T19:13:21.391Z,97.20
2018-12-02T19:16:25.419Z,97.20
2018-12-02T19:19:29.467Z,97.30
2018-12-02T19:22:33.477Z,97.20
2018-12-02T19:25:37.666Z,97.10
2018-12-02T19:28:41.748Z,97.10
2018-12-02T19:31:46.126Z,97.00
2018-12-02T19:34:50.440Z,97.00
2018-12-02T19:37:57.141Z,96.90
2018-12-02T19:41:01.130Z,96.80
2018-12-02T19:44:05.902Z,96.80
2018-12-02T19:47:10.338Z,96.70
2018-12-02T19:50:17.532Z,96.70
2018-12-02T19:53:21.942Z,96.60
2018-12-02T19:56:25.974Z,96.60
2018-12-02T19:59:29.997Z,96.50
2018-12-02T20:02:33.995Z,96.50
2018-12-02T20:05:38.395Z,96.40
2018-12-02T20:08:42.435Z,96.40
2018-12-02T20:11:46.430Z,96.40
2018-12-02T20:14:50.750Z,96.40
2018-12-02T20:17:54.767Z,96.30
2018-12-02T20:21:00.285Z,96.30
2018-12-02T20:24:09.667Z,96.30
2018-12-02T20:27:13.771Z,96.40
2018-12-02T20:30:19.111Z,96.50
2018-12-02T20:33:23.178Z,96.60
2018-12-02T20:36:27.224Z,96.60
2018-12-02T20:39:31.196Z,96.70
2018-12-02T20:42:35.247Z,96.80
2018-12-02T20:45:39.254Z,96.70
2018-12-02T20:48:43.239Z,96.80
2018-12-02T20:51:47.250Z,96.80
2018-12-02T20:54:51.283Z,96.80
2018-12-02T20:57:56.956Z,96.90
2018-12-02T21:01:00.957Z,97.00
2018-12-02T21:04:08.157Z,97.10
2018-12-02T21:07:12.159Z,97.20
2018-12-02T21:10:16.163Z,97.30
2018-12-02T21:13:20.163Z,97.20
2018-12-02T21:16:24.175Z,97.10
2018-12-02T21:19:28.182Z,96.80
2018-12-02T21:22:32.176Z,96.70
2018-12-02T21:25:36.189Z,96.70
2018-12-02T21:28:40.982Z,96.60
2018-12-02T21:31:45.012Z,96.60
2018-12-02T21:34:49.001Z,96.60
2018-12-02T21:37:54.575Z,96.50
2018-12-02T21:40:58.597Z,96.50
2018-12-02T21:44:02.702Z,96.50
2018-12-02T21:47:06.695Z,96.50
2018-12-02T21:50:13.471Z,96.50
2018-12-02T21:53:17.577Z,96.50
2018-12-02T21:56:21.598Z,96.50
2018-12-02T21:59:25.610Z,96.50
2018-12-02T22:02:29.714Z,96.50
2018-12-02T22:05:33.722Z,96.40
2018-12-02T22:08:37.752Z,96.40
2018-12-02T22:11:41.836Z,96.40
2018-12-02T22:14:45.871Z,96.40
2018-12-02T22:17:49.874Z,96.30
2018-12-02T22:20:53.887Z,96.40
2018-12-02T22:24:01.253Z,96.40
2018-12-02T22:27:02.004Z,96.40
2018-12-02T22:30:08.450Z,96.40
2018-12-02T22:33:12.460Z,96.50
2018-12-02T22:36:16.552Z,96.50
2018-12-02T22:39:20.543Z,96.80
2018-12-02T22:42:24.542Z,96.60
2018-12-02T22:45:29.164Z,96.70
2018-12-02T22:48:33.174Z,96.80
2018-12-02T22:51:37.176Z,96.80
2018-12-02T22:54:41.198Z,96.80
2018-12-02T22:57:45.206Z,96.90
2018-12-02T23:00:54.565Z,97.00
2018-12-02T23:03:58.558Z,97.00
2018-12-02T23:07:02.566Z,97.00
2018-12-02T23:10:06.646Z,97.00
2018-12-02T23:13:11.018Z,97.00
2018-12-02T23:16:15.038Z,97.00
2018-12-02T23:19:19.028Z,97.00
2018-12-02T23:22:23.036Z,97.00
2018-12-02T23:25:27.030Z,97.00
2018-12-02T23:28:31.036Z,97.10
2018-12-02T23:31:35.038Z,97.00
2018-12-02T23:34:39.034Z,97.00
2018-12-02T23:37:43.039Z,97.00
2018-12-02T23:40:47.035Z,97.00
2018-12-02T23:43:51.023Z,96.70
2018-12-02T23:46:55.032Z,96.60
2018-12-02T23:49:59.022Z,96.60
2018-12-02T23:53:03.105Z,96.60
2018-12-02T23:56:07.094Z,96.60
2018-12-02T23:59:11.124Z,96.60
